createdAt,value
2018-07-26T00:00:42.494Z,5.97
2018-07-26T00:03:10.582Z,7.58
2018-07-26T00:05:38.978Z,8.60
2018-07-26T00:08:07.063Z,5.87
2018-07-26T00:10:35.136Z,8.83
2018-07-26T00:13:03.444Z,7.05
2018-07-26T00:15:31.509Z,5.28
2018-07-26T00:17:59.571Z,9.23
2018-07-26T00:20:27.638Z,5.90
2018-07-26T00:22:55.888Z,4.75
2018-07-26T00:25:23.954Z,5.78
2018-07-26T00:27:52.110Z,8.30
2018-07-26T00:30:20.240Z,12.43
2018-07-26T00:32:48.314Z,7.22
2018-07-26T00:35:16.675Z,10.65
2018-07-26T00:37:44.746Z,6.83
2018-07-26T00:40:12.839Z,6.45
2018-07-26T00:42:41.187Z,8.18
2018-07-26T00:45:09.262Z,6.67
2018-07-26T00:47:37.332Z,8.50
2018-07-26T00:50:05.713Z,8.48
2018-07-26T00:52:33.798Z,7.22
2018-07-26T00:55:01.874Z,6.45
2018-07-26T00:57:29.942Z,8.98
2018-07-26T00:59:58.044Z,6.62
2018-07-26T01:02:26.107Z,6.78
2018-07-26T01:04:54.467Z,10.15
2018-07-26T01:07:22.509Z,8.90
2018-07-26T01:09:50.612Z,8.48
2018-07-26T01:12:18.962Z,7.42
2018-07-26T01:14:47.260Z,9.45
2018-07-26T01:17:15.292Z,9.68
2018-07-26T01:19:43.342Z,7.10
2018-07-26T01:22:11.189Z,9.30
2018-07-26T01:24:39.250Z,7.87
2018-07-26T01:27:07.694Z,8.38
2018-07-26T01:29:35.783Z,10.23
2018-07-26T01:32:03.865Z,8.08
2018-07-26T01:34:32.232Z,13.22
2018-07-26T01:37:00.354Z,8.88
2018-07-26T01:39:28.426Z,8.60
2018-07-26T01:41:56.519Z,13.72
2018-07-26T01:44:25.610Z,10.93
2018-07-26T01:46:53.681Z,8.85
2018-07-26T01:49:21.776Z,10.93
2018-07-26T01:51:49.830Z,12.20
2018-07-26T01:54:17.956Z,14.05
2018-07-26T01:56:46.306Z,10.30
2018-07-26T01:59:14.398Z,10.58
2018-07-26T02:01:42.530Z,15.85
2018-07-26T02:04:10.830Z,10.95
2018-07-26T02:06:38.957Z,13.25
2018-07-26T02:09:08.734Z,10.85
2018-07-26T02:11:37.207Z,11.95
2018-07-26T02:14:05.518Z,16.52
2018-07-26T02:16:33.660Z,11.75
2018-07-26T02:19:02.134Z,10.85
2018-07-26T02:21:30.210Z,19.23
2018-07-26T02:23:58.298Z,13.38
2018-07-26T02:26:26.386Z,13.10
2018-07-26T02:28:54.550Z,11.53
2018-07-26T02:31:22.684Z,12.18
2018-07-26T02:33:51.076Z,11.95
2018-07-26T02:36:19.169Z,12.88
2018-07-26T02:38:47.246Z,15.45
2018-07-26T02:41:15.353Z,13.75
2018-07-26T02:43:43.436Z,13.38
2018-07-26T02:46:11.528Z,15.58
2018-07-26T02:48:39.634Z,14.33
2018-07-26T02:51:07.728Z,16.00
2018-07-26T02:53:35.806Z,18.30
2018-07-26T02:56:04.228Z,15.80
2018-07-26T02:58:32.326Z,16.17
2018-07-26T03:01:00.490Z,15.83
2018-07-26T03:03:28.602Z,14.58
2018-07-26T03:05:56.690Z,15.93
2018-07-26T03:08:24.778Z,16.27
2018-07-26T03:10:53.002Z,15.18
2018-07-26T03:13:21.127Z,19.05
2018-07-26T03:15:49.210Z,16.07
2018-07-26T03:18:17.594Z,18.42
2018-07-26T03:20:45.685Z,15.03
2018-07-26T03:23:13.752Z,15.70
2018-07-26T03:25:41.838Z,16.40
2018-07-26T03:28:09.903Z,15.32
2018-07-26T03:30:37.973Z,15.00
2018-07-26T03:33:06.051Z,15.88
2018-07-26T03:35:34.146Z,15.48
2018-07-26T03:38:02.258Z,18.95
2018-07-26T03:40:30.653Z,16.25
2018-07-26T03:42:58.748Z,17.23
2018-07-26T03:45:26.826Z,15.83
2018-07-26T03:47:55.238Z,16.40
2018-07-26T03:50:23.308Z,14.35
2018-07-26T03:52:51.450Z,17.75
2018-07-26T03:55:19.862Z,16.60
2018-07-26T03:57:48.059Z,16.00
2018-07-26T04:00:16.102Z,15.43
2018-07-26T04:02:44.530Z,18.10
2018-07-26T04:05:12.606Z,17.65
2018-07-26T04:07:40.690Z,15.88
2018-07-26T04:10:08.768Z,16.52
2018-07-26T04:12:36.849Z,15.80
2018-07-26T04:15:05.506Z,16.43
2018-07-26T04:17:33.594Z,17.85
2018-07-26T04:20:01.766Z,15.80
2018-07-26T04:22:29.738Z,15.00
2018-07-26T04:24:58.095Z,17.40
2018-07-26T04:27:26.172Z,15.83
2018-07-26T04:29:54.247Z,19.62
2018-07-26T04:32:22.346Z,16.65
2018-07-26T04:34:50.418Z,17.90
2018-07-26T04:37:18.486Z,16.10
2018-07-26T04:39:46.884Z,17.23
2018-07-26T04:42:14.918Z,16.85
2018-07-26T04:44:43.002Z,20.72
2018-07-26T04:47:11.330Z,18.00
2018-07-26T04:49:39.454Z,20.97
2018-07-26T04:52:07.518Z,17.87
2018-07-26T04:54:35.653Z,19.00
2018-07-26T04:57:03.723Z,21.73
2018-07-26T04:59:31.804Z,18.82
2018-07-26T05:02:00.195Z,21.50
2018-07-26T05:04:28.278Z,20.43
2018-07-26T05:06:56.422Z,18.10
2018-07-26T05:09:24.510Z,20.23
2018-07-26T05:11:52.616Z,22.55
2018-07-26T05:14:20.682Z,20.20
2018-07-26T05:16:49.031Z,17.57
2018-07-26T05:19:17.116Z,18.50
2018-07-26T05:21:45.215Z,18.98
2018-07-26T05:24:13.290Z,18.60
2018-07-26T05:26:41.373Z,19.48
2018-07-26T05:29:09.462Z,19.40
2018-07-26T05:31:37.599Z,20.23
2018-07-26T05:34:05.683Z,19.37
2018-07-26T05:36:33.803Z,29.00
2018-07-26T05:39:01.879Z,18.10
2018-07-26T05:41:30.082Z,18.12
2018-07-26T05:43:58.227Z,20.72
2018-07-26T05:46:26.718Z,18.07
2018-07-26T05:48:54.821Z,15.75
2018-07-26T05:51:22.890Z,17.20
2018-07-26T05:53:50.999Z,18.92
2018-07-26T05:56:19.105Z,20.65
2018-07-26T05:58:47.258Z,23.18
2018-07-26T06:01:15.662Z,18.85
2018-07-26T06:03:43.777Z,17.95
2018-07-26T06:06:11.875Z,21.17
2018-07-26T06:08:40.290Z,23.77
2018-07-26T06:11:08.378Z,20.00
2018-07-26T06:13:36.468Z,22.40
2018-07-26T06:16:04.806Z,18.95
2018-07-26T06:18:32.887Z,21.02
2018-07-26T06:21:00.958Z,19.70
2018-07-26T06:23:29.482Z,24.35
2018-07-26T06:25:57.547Z,18.27
2018-07-26T06:28:25.635Z,26.45
2018-07-26T06:30:53.591Z,19.27
2018-07-26T06:33:21.787Z,21.05
2018-07-26T06:35:49.814Z,24.05
2018-07-26T06:38:17.899Z,21.62
2018-07-26T06:40:45.967Z,21.68
2018-07-26T06:43:14.052Z,24.90
2018-07-26T06:45:42.459Z,20.48
2018-07-26T06:48:10.534Z,21.93
2018-07-26T06:50:38.640Z,17.92
2018-07-26T06:53:07.130Z,20.75
2018-07-26T06:55:35.146Z,19.48
2018-07-26T06:58:03.279Z,24.18
2018-07-26T07:00:31.595Z,22.87
2018-07-26T07:02:59.682Z,20.30
2018-07-26T07:05:27.761Z,20.72
2018-07-26T07:07:56.227Z,20.30
2018-07-26T07:10:24.295Z,23.52
2018-07-26T07:12:52.762Z,23.25
2018-07-26T07:15:21.148Z,21.60
2018-07-26T07:17:49.227Z,19.35
2018-07-26T07:20:17.318Z,25.05
2018-07-26T07:22:45.447Z,20.70
2018-07-26T07:25:13.520Z,28.83
2018-07-26T07:27:41.655Z,22.32
2018-07-26T07:30:11.543Z,19.25
2018-07-26T07:32:40.128Z,21.85
2018-07-26T07:35:08.237Z,16.80
2018-07-26T07:37:36.684Z,20.17
2018-07-26T07:40:05.379Z,24.05
2018-07-26T07:42:33.542Z,17.55
2018-07-26T07:45:01.905Z,17.98
2018-07-26T07:47:30.014Z,20.60
2018-07-26T07:49:58.137Z,17.00
2018-07-26T07:52:26.234Z,18.93
2018-07-26T07:54:54.318Z,19.65
2018-07-26T07:57:22.378Z,18.57
2018-07-26T07:59:50.853Z,19.17
2018-07-26T08:02:18.958Z,18.20
2018-07-26T08:04:47.047Z,18.10
2018-07-26T08:07:15.814Z,18.15
2018-07-26T08:09:44.077Z,19.87
2018-07-26T08:12:12.170Z,15.88
2018-07-26T08:14:40.637Z,22.70
2018-07-26T08:17:10.842Z,16.70
2018-07-26T08:19:38.934Z,16.45
2018-07-26T08:22:07.361Z,20.60
2018-07-26T08:24:35.506Z,18.82
2018-07-26T08:27:03.715Z,24.43
2018-07-26T08:29:32.217Z,21.85
2018-07-26T08:32:00.241Z,18.57
2018-07-26T08:34:28.334Z,20.45
2018-07-26T08:36:56.447Z,17.90
2018-07-26T08:39:24.540Z,14.45
2018-07-26T08:41:52.646Z,15.10
2018-07-26T08:44:21.347Z,21.68
2018-07-26T08:46:49.414Z,22.50
2018-07-26T08:49:17.268Z,19.60
2018-07-26T08:51:45.710Z,19.62
2018-07-26T08:54:14.049Z,14.45
2018-07-26T08:56:42.506Z,14.70
2018-07-26T08:59:10.891Z,16.23
2018-07-26T09:01:39.120Z,15.88
2018-07-26T09:04:07.567Z,21.70
2018-07-26T09:06:35.662Z,17.33
2018-07-26T09:09:06.162Z,17.02
2018-07-26T09:11:34.264Z,18.10
2018-07-26T09:14:02.573Z,11.70
2018-07-26T09:16:30.713Z,16.70
2018-07-26T09:18:58.858Z,17.73
2018-07-26T09:21:27.225Z,14.95
2018-07-26T09:23:55.298Z,11.38
2018-07-26T09:26:23.732Z,11.60
2018-07-26T09:28:52.027Z,14.85
2018-07-26T09:31:20.092Z,14.85
2018-07-26T09:33:48.213Z,11.35
2018-07-26T09:36:17.043Z,11.22
2018-07-26T09:38:45.112Z,12.82
2018-07-26T09:41:14.172Z,18.35
2018-07-26T09:43:43.156Z,9.90
2018-07-26T09:46:11.207Z,16.25
2018-07-26T09:48:39.349Z,13.88
2018-07-26T09:51:07.932Z,13.65
2018-07-26T09:53:36.004Z,12.37
2018-07-26T09:56:04.086Z,13.32
2018-07-26T09:58:32.460Z,12.55
2018-07-26T10:01:05.930Z,11.25
2018-07-26T10:03:34.011Z,12.85
2018-07-26T10:06:02.107Z,10.68
2018-07-26T10:08:30.222Z,9.28
2018-07-26T10:10:58.650Z,10.88
2018-07-26T10:13:26.855Z,9.10
2018-07-26T10:15:54.998Z,7.67
2018-07-26T10:18:22.998Z,8.20
2018-07-26T10:20:51.261Z,7.45
2018-07-26T10:23:19.374Z,10.82
2018-07-26T10:25:47.803Z,6.90
2018-07-26T10:28:15.882Z,15.63
2018-07-26T10:30:43.957Z,7.35
2018-07-26T10:33:12.328Z,8.28
2018-07-26T10:35:40.426Z,8.23
2018-07-26T10:38:08.538Z,10.28
2018-07-26T10:40:36.942Z,7.03
2018-07-26T10:43:05.064Z,6.75
2018-07-26T10:45:33.184Z,8.43
2018-07-26T10:48:01.559Z,7.67
2018-07-26T10:50:29.737Z,10.05
2018-07-26T10:52:57.890Z,6.40
2018-07-26T10:55:26.291Z,10.93
2018-07-26T10:57:54.403Z,5.60
2018-07-26T11:00:22.309Z,5.10
2018-07-26T11:02:50.347Z,6.53
2018-07-26T11:05:18.415Z,8.43
2018-07-26T11:07:46.573Z,7.83
2018-07-26T11:10:14.870Z,8.03
2018-07-26T11:12:42.950Z,8.85
2018-07-26T11:15:15.224Z,7.28
2018-07-26T11:17:43.230Z,7.28
2018-07-26T11:20:11.318Z,8.63
2018-07-26T11:22:39.409Z,10.50
2018-07-26T11:25:07.484Z,9.68
2018-07-26T11:27:35.646Z,9.08
2018-07-26T11:30:04.192Z,6.67
2018-07-26T11:32:32.215Z,8.88
2018-07-26T11:35:00.298Z,4.70
2018-07-26T11:37:28.391Z,5.75
2018-07-26T11:39:56.489Z,5.55
2018-07-26T11:42:24.574Z,7.08
2018-07-26T11:44:52.738Z,5.37
2018-07-26T11:47:20.912Z,5.62
2018-07-26T11:49:48.991Z,7.35
2018-07-26T11:52:17.531Z,5.42
2018-07-26T11:54:45.635Z,4.90
2018-07-26T11:57:13.741Z,4.45
2018-07-26T11:59:42.118Z,5.65
2018-07-26T12:02:10.211Z,5.17
2018-07-26T12:04:38.294Z,3.47
2018-07-26T12:07:06.638Z,5.90
2018-07-26T12:09:34.853Z,3.60
2018-07-26T12:12:02.991Z,7.25
2018-07-26T12:14:31.067Z,5.83
2018-07-26T12:16:59.500Z,6.33
2018-07-26T12:19:27.746Z,3.22
2018-07-26T12:21:56.178Z,5.72
2018-07-26T12:24:24.345Z,4.45
2018-07-26T12:26:52.556Z,78.78
2018-07-26T12:29:20.906Z,11.73
2018-07-26T12:31:48.978Z,5.53
2018-07-26T12:34:17.050Z,6.70
2018-07-26T12:36:45.432Z,4.90
2018-07-26T12:39:14.646Z,4.90
2018-07-26T12:41:42.782Z,7.25
2018-07-26T12:44:11.210Z,6.25
2018-07-26T12:46:39.306Z,7.28
2018-07-26T12:49:07.410Z,4.95
2018-07-26T12:51:35.506Z,4.80
2018-07-26T12:54:03.659Z,7.17
2018-07-26T12:56:31.737Z,4.92
2018-07-26T12:59:00.122Z,6.28
2018-07-26T13:01:28.234Z,5.62
2018-07-26T13:03:56.805Z,5.53
2018-07-26T13:06:24.895Z,6.15
2018-07-26T13:08:53.468Z,4.60
2018-07-26T13:11:21.562Z,3.58
2018-07-26T13:13:49.683Z,6.08
2018-07-26T13:16:17.950Z,4.72
2018-07-26T13:18:46.012Z,6.03
2018-07-26T13:21:14.100Z,4.42
2018-07-26T13:23:42.214Z,3.80
2018-07-26T13:26:10.295Z,5.03
2018-07-26T13:28:38.629Z,4.62
2018-07-26T13:31:07.046Z,6.83
2018-07-26T13:33:35.138Z,4.12
2018-07-26T13:36:03.560Z,10.25
2018-07-26T13:38:31.623Z,4.33
2018-07-26T13:40:59.745Z,4.85
2018-07-26T13:43:28.095Z,5.50
2018-07-26T13:45:56.219Z,5.25
2018-07-26T13:48:24.406Z,4.70
2018-07-26T13:50:52.322Z,5.83
2018-07-26T13:53:20.429Z,4.60
2018-07-26T13:55:48.502Z,6.40
2018-07-26T13:58:16.862Z,6.37
2018-07-26T14:00:44.959Z,5.00
2018-07-26T14:03:13.026Z,6.20
2018-07-26T14:05:41.458Z,5.45
2018-07-26T14:08:09.669Z,6.30
2018-07-26T14:10:37.747Z,6.10
2018-07-26T14:13:06.094Z,5.60
2018-07-26T14:15:34.220Z,5.40
2018-07-26T14:18:03.129Z,5.78
2018-07-26T14:20:31.268Z,9.00
2018-07-26T14:22:59.551Z,4.97
2018-07-26T14:25:28.132Z,4.92
2018-07-26T14:27:57.640Z,5.53
2018-07-26T14:30:25.763Z,5.50
2018-07-26T14:32:54.135Z,9.70
2018-07-26T14:35:22.906Z,8.80
2018-07-26T14:37:50.994Z,7.10
2018-07-26T14:40:19.067Z,7.22
2018-07-26T14:42:47.445Z,6.22
2018-07-26T14:45:15.523Z,5.20
2018-07-26T14:47:44.731Z,9.45
2018-07-26T14:50:13.415Z,8.63
2018-07-26T14:52:41.596Z,5.62
2018-07-26T14:55:09.682Z,6.47
2018-07-26T14:57:37.994Z,6.47
2018-07-26T15:00:06.050Z,10.05
2018-07-26T15:02:34.129Z,4.72
2018-07-26T15:05:02.532Z,7.87
2018-07-26T15:07:30.594Z,4.75
2018-07-26T15:09:58.686Z,4.62
2018-07-26T15:12:27.006Z,13.72
2018-07-26T15:14:55.095Z,4.37
2018-07-26T15:17:23.374Z,4.42
2018-07-26T15:19:51.809Z,8.78
2018-07-26T15:22:20.184Z,5.00
2018-07-26T15:24:48.394Z,6.25
2018-07-26T15:27:16.837Z,4.65
2018-07-26T15:29:44.909Z,6.00
2018-07-26T15:32:12.970Z,4.30
2018-07-26T15:34:41.076Z,4.25
2018-07-26T15:37:09.182Z,4.17
2018-07-26T15:39:37.239Z,4.72
2018-07-26T15:42:05.595Z,5.78
2018-07-26T15:44:33.719Z,6.60
2018-07-26T15:47:01.866Z,5.87
2018-07-26T15:49:30.115Z,4.62
2018-07-26T15:51:58.227Z,6.42
2018-07-26T15:54:26.330Z,4.08
2018-07-26T15:56:54.659Z,4.33
2018-07-26T15:59:22.754Z,5.97
2018-07-26T16:01:50.827Z,4.12
2018-07-26T16:04:18.954Z,7.42
2018-07-26T16:06:47.087Z,4.50
2018-07-26T16:09:15.184Z,5.37
2018-07-26T16:11:44.200Z,5.12
2018-07-26T16:14:12.298Z,4.67
2018-07-26T16:16:40.903Z,4.53
2018-07-26T16:19:09.299Z,4.70
2018-07-26T16:21:38.916Z,4.33
2018-07-26T16:24:07.185Z,6.17
2018-07-26T16:26:35.571Z,10.35
2018-07-26T16:29:03.728Z,4.60
2018-07-26T16:31:31.824Z,9.30
2018-07-26T16:34:00.196Z,4.03
2018-07-26T16:36:28.286Z,7.97
2018-07-26T16:38:56.378Z,6.55
2018-07-26T16:41:24.691Z,4.53
2018-07-26T16:43:52.754Z,4.03
2018-07-26T16:46:20.858Z,8.05
2018-07-26T16:48:49.238Z,5.87
2018-07-26T16:51:17.321Z,5.35
2018-07-26T16:53:45.454Z,5.40
2018-07-26T16:56:13.871Z,6.03
2018-07-26T16:58:42.202Z,5.33
2018-07-26T17:01:10.235Z,8.75
2018-07-26T17:03:38.697Z,6.53
2018-07-26T17:06:06.769Z,5.40
2018-07-26T17:08:34.847Z,6.87
2018-07-26T17:11:03.292Z,8.23
2018-07-26T17:13:31.398Z,4.12
2018-07-26T17:15:59.562Z,4.58
2018-07-26T17:18:27.944Z,4.70
2018-07-26T17:20:56.008Z,7.17
2018-07-26T17:23:24.357Z,8.58
2018-07-26T17:25:52.459Z,5.42
2018-07-26T17:28:20.583Z,9.38
2018-07-26T17:30:48.674Z,9.90
2018-07-26T17:33:16.762Z,7.03
2018-07-26T17:35:44.951Z,6.25
2018-07-26T17:38:12.944Z,6.08
2018-07-26T17:40:41.415Z,5.55
2018-07-26T17:43:09.860Z,5.00
2018-07-26T17:45:38.032Z,3.50
2018-07-26T17:48:06.400Z,3.95
2018-07-26T17:50:34.481Z,6.08
2018-07-26T17:53:02.668Z,4.95
2018-07-26T17:55:30.786Z,11.80
2018-07-26T17:57:58.850Z,5.17
2018-07-26T18:00:26.975Z,11.83
2018-07-26T18:02:55.543Z,11.25
2018-07-26T18:05:23.641Z,11.73
2018-07-26T18:07:52.937Z,7.28
2018-07-26T18:10:21.288Z,8.93
2018-07-26T18:12:49.455Z,7.65
2018-07-26T18:15:17.559Z,7.60
2018-07-26T18:17:46.285Z,8.13
2018-07-26T18:20:14.384Z,6.33
2018-07-26T18:22:42.472Z,13.40
2018-07-26T18:25:10.860Z,9.73
2018-07-26T18:27:38.737Z,4.05
2018-07-26T18:30:07.815Z,6.47
2018-07-26T18:32:35.911Z,7.05
2018-07-26T18:35:04.320Z,7.42
2018-07-26T18:37:32.407Z,7.50
2018-07-26T18:40:00.746Z,10.15
2018-07-26T18:42:29.067Z,7.65
2018-07-26T18:44:57.505Z,6.75
2018-07-26T18:47:25.866Z,7.97
2018-07-26T18:49:53.959Z,5.78
2018-07-26T18:52:22.090Z,11.03
2018-07-26T18:54:50.480Z,8.35
2018-07-26T18:57:18.562Z,8.25
2018-07-26T18:59:46.635Z,5.55
2018-07-26T19:02:15.061Z,7.92
2018-07-26T19:04:43.214Z,6.50
2018-07-26T19:07:11.402Z,6.80
2018-07-26T19:09:39.521Z,4.25
2018-07-26T19:12:07.586Z,5.62
2018-07-26T19:14:35.653Z,5.85
2018-07-26T19:17:04.247Z,5.20
2018-07-26T19:19:32.322Z,5.37
2018-07-26T19:22:00.722Z,6.00
2018-07-26T19:24:29.078Z,6.50
2018-07-26T19:26:57.195Z,5.80
2018-07-26T19:29:25.326Z,7.22
2018-07-26T19:31:53.699Z,15.32
2018-07-26T19:34:22.198Z,12.43
2018-07-26T19:36:50.282Z,7.72
2018-07-26T19:39:18.588Z,10.30
2018-07-26T19:41:47.933Z,12.60
2018-07-26T19:44:16.079Z,7.85
2018-07-26T19:46:44.378Z,7.72
2018-07-26T19:49:12.515Z,7.23
2018-07-26T19:51:40.624Z,7.60
2018-07-26T19:54:09.027Z,9.78
2018-07-26T19:56:37.135Z,7.55
2018-07-26T19:59:05.231Z,8.13
2018-07-26T20:01:33.638Z,11.20
2018-07-26T20:04:01.723Z,9.93
2018-07-26T20:06:29.773Z,9.18
2018-07-26T20:08:57.941Z,21.17
2018-07-26T20:11:26.043Z,13.95
2018-07-26T20:13:54.134Z,9.45
2018-07-26T20:16:22.207Z,9.35
2018-07-26T20:18:50.339Z,13.32
2018-07-26T20:21:18.416Z,11.50
2018-07-26T20:23:46.894Z,13.48
2018-07-26T20:26:14.970Z,11.50
2018-07-26T20:28:43.054Z,16.87
2018-07-26T20:31:11.446Z,18.07
2018-07-26T20:33:39.517Z,8.95
2018-07-26T20:36:07.634Z,11.05
2018-07-26T20:38:36.060Z,11.75
2018-07-26T20:41:04.160Z,14.93
2018-07-26T20:43:32.279Z,12.23
2018-07-26T20:46:00.670Z,10.28
2018-07-26T20:48:28.886Z,9.08
2018-07-26T20:50:57.024Z,10.10
2018-07-26T20:53:25.351Z,15.80
2018-07-26T20:55:53.458Z,9.75
2018-07-26T20:58:21.340Z,9.88
2018-07-26T21:00:49.464Z,11.97
2018-07-26T21:03:17.563Z,13.38
2018-07-26T21:05:45.642Z,8.28
2018-07-26T21:08:13.752Z,9.90
2018-07-26T21:10:41.827Z,8.68
2018-07-26T21:13:10.197Z,7.53
2018-07-26T21:15:38.415Z,12.25
2018-07-26T21:18:06.687Z,8.43
2018-07-26T21:20:35.182Z,10.25
2018-07-26T21:23:08.110Z,7.40
2018-07-26T21:25:36.938Z,11.38
2018-07-26T21:28:06.184Z,9.10
2018-07-26T21:30:34.633Z,9.63
2018-07-26T21:33:02.896Z,10.72
2018-07-26T21:35:31.015Z,10.38
2018-07-26T21:37:59.367Z,10.00
2018-07-26T21:40:27.539Z,9.45
2018-07-26T21:42:57.483Z,12.75
2018-07-26T21:45:25.535Z,10.63
2018-07-26T21:47:54.255Z,7.33
2018-07-26T21:50:24.809Z,9.78
2018-07-26T21:52:52.986Z,8.68
2018-07-26T21:55:21.612Z,17.95
2018-07-26T21:57:49.645Z,9.90
2018-07-26T22:00:18.112Z,9.05
2018-07-26T22:02:46.295Z,8.07
2018-07-26T22:05:14.523Z,8.38
2018-07-26T22:07:42.938Z,9.15
2018-07-26T22:10:11.063Z,7.95
2018-07-26T22:12:39.103Z,13.40
2018-07-26T22:15:07.706Z,13.32
2018-07-26T22:17:35.766Z,8.68
2018-07-26T22:20:04.331Z,12.28
2018-07-26T22:22:32.814Z,8.70
2018-07-26T22:25:00.905Z,8.65
2018-07-26T22:27:28.974Z,12.18
2018-07-26T22:29:57.070Z,10.75
2018-07-26T22:32:25.196Z,12.60
2018-07-26T22:34:53.257Z,7.40
2018-07-26T22:37:21.749Z,7.47
2018-07-26T22:39:49.822Z,14.38
2018-07-26T22:42:17.894Z,9.73
2018-07-26T22:44:45.995Z,12.68
2018-07-26T22:47:14.074Z,10.55
2018-07-26T22:49:42.018Z,10.98
2018-07-26T22:52:10.406Z,12.95
2018-07-26T22:54:38.457Z,8.88
2018-07-26T22:57:06.581Z,16.07
2018-07-26T22:59:34.738Z,14.03
2018-07-26T23:02:02.870Z,9.43
2018-07-26T23:04:30.959Z,19.50
2018-07-26T23:06:59.330Z,13.45
2018-07-26T23:09:27.406Z,15.00
2018-07-26T23:11:55.490Z,17.23
2018-07-26T23:14:23.595Z,19.37
2018-07-26T23:16:51.695Z,14.03
2018-07-26T23:19:19.827Z,13.25
2018-07-26T23:21:48.168Z,10.43
2018-07-26T23:24:16.271Z,12.88
2018-07-26T23:26:44.383Z,11.97
2018-07-26T23:29:12.461Z,12.65
2018-07-26T23:31:40.631Z,12.70
2018-07-26T23:34:08.703Z,11.03
2018-07-26T23:36:37.114Z,7.87
2018-07-26T23:39:07.284Z,8.35
2018-07-26T23:41:35.355Z,6.75
2018-07-26T23:44:03.622Z,8.55
2018-07-26T23:46:31.693Z,8.25
2018-07-26T23:48:59.782Z,7.80
2018-07-26T23:51:27.881Z,10.80
2018-07-26T23:53:56.063Z,12.35
2018-07-26T23:56:24.154Z,9.93
2018-07-26T23:58:52.524Z,12.35
